Cabot, Vermont
Current Conditions -  °F | °C
As of 1:22 AM on Saturday 25 Oct 2014 (Local Time) from KMVL Reporting Station
Haze Haze  
Wind Chill: 34°   Ceiling: 100
Heat Index: 34°   Visibility: 0.75mi
Dew Point: 32°   Wind: 0mph
Humidity: 92%   Direction: NA
Pressure: 29.81"   Gusts: NA
Location:  44.4°N, 72.31°W
Report Text: KMVL 250522Z AUTO 00000KT 3/4SM BR VV001 01/00 A2981 RMK AO2 VIS 1/2V3 T00110000
Loading
Personal Weather Stations






























Interactive Weather Map
Tropical Storm Tracking
New forecast layout! Learn more

10-Day Weather Forecast

Advertisements
Track Severe Weather on mobile